Private Wetterstation Wechselburg
Wetterdaten: Sonntag, 14.10.2012
Datum Zeit Temp. +2m Bodentemp. Temp.+5cm Temp. Wind Windchill X Diff Temp. Feuchte +2m Feuchte +5cm Sonnenschein Luftdruck Regen Wind Richtung Richtung Sonnenschein UV Taupunkt Windchill Windben
14.10.2012 00:00 3,9 C 16,1 C 5,4 C 4,1 C 4,1 C 0,2 C 88 % 91 % 0 % 1009,1 hPa 0,0 l/m 0,0 km/h (0 Bft) W-SW 247 0 min 0,0 UV-I 2,1 C 4,1 C 0,0 km/h (0 Bft)
14.10.2012 00:05 3,9 C 16,2 C 5,3 C 4,1 C 4,1 C 0,2 C 88 % 91 % 0 % 1009,1 hPa 0,0 l/m 0,0 km/h (0 Bft) O-NO 67 0 min 0,0 UV-I 2,1 C 4,1 C 0,0 km/h (0 Bft)
14.10.2012 00:10 3,9 C 16,2 C 5,3 C 4,2 C 4,2 C 0,3 C 88 % 91 % 0 % 1009,1 hPa 0,0 l/m 0,0 km/h (0 Bft) O-NO 67 0 min 0,0 UV-I 2,1 C 4,2 C 0,0 km/h (0 Bft)
14.10.2012 00:15 3,9 C 16,1 C 5,3 C 4,3 C 4,3 C 0,4 C 88 % 91 % 0 % 1009,1 hPa 0,0 l/m 0,0 km/h (0 Bft) O 90 0 min 0,0 UV-I 2,1 C 4,3 C 0,0 km/h (0 Bft)
14.10.2012 00:20 3,9 C 16,1 C 5,3 C 4,3 C 4,3 C 0,4 C 88 % 91 % 0 % 1008,6 hPa 0,0 l/m 0,0 km/h (0 Bft) O 90 0 min 0,0 UV-I 2,1 C 4,3 C 0,0 km/h (0 Bft)
14.10.2012 00:25 3,9 C 16,1 C 5,3 C 4,4 C 4,4 C 0,5 C 89 % 91 % 0 % 1008,6 hPa 0,0 l/m 0,0 km/h (0 Bft) O-NO 67 0 min 0,0 UV-I 2,3 C 4,4 C 0,0 km/h (0 Bft)
14.10.2012 00:30 3,9 C 16,1 C 5,3 C 4,4 C 4,4 C 0,5 C 89 % 91 % 0 % 1008,6 hPa 0,0 l/m 0,0 km/h (0 Bft) O-NO 67 0 min 0,0 UV-I 2,3 C 4,4 C 0,0 km/h (0 Bft)
14.10.2012 00:35 3,8 C 16,1 C 5,3 C 4,4 C 4,4 C 0,6 C 89 % 91 % 0 % 1008,6 hPa 0,0 l/m 0,0 km/h (0 Bft) N-NW 337 0 min 0,0 UV-I 2,2 C 4,4 C 0,0 km/h (0 Bft)
14.10.2012 00:41 3,9 C 16,1 C 5,3 C 4,3 C 4,3 C 0,4 C 89 % 91 % 0 % 1008,8 hPa 0,0 l/m 0,0 km/h (0 Bft) N 0 0 min 0,0 UV-I 2,3 C 4,3 C 0,0 km/h (0 Bft)
14.10.2012 01:00 3,9 C 16,1 C 5,3 C 4,3 C 4,3 C 0,4 C 89 % 91 % 0 % 1008,1 hPa 0,0 l/m 0,0 km/h (0 Bft) O-NO 67 0 min 0,0 UV-I 2,3 C 4,3 C 0,0 km/h (0 Bft)
14.10.2012 01:05 3,8 C 16,0 C 5,3 C 4,2 C 4,2 C 0,4 C 89 % 91 % 0 % 1008,1 hPa 0,0 l/m 0,0 km/h (0 Bft) W 270 0 min 0,0 UV-I 2,2 C 4,2 C 0,0 km/h (0 Bft)
14.10.2012 01:10 3,7 C 16,0 C 5,2 C 4,1 C 4,1 C 0,4 C 89 % 91 % 0 % 1008,1 hPa 0,0 l/m 0,0 km/h (0 Bft) W-NW 292 0 min 0,0 UV-I 2,1 C 4,1 C 0,0 km/h (0 Bft)
14.10.2012 01:15 3,7 C 16,0 C 5,2 C 4,1 C 4,1 C 0,4 C 89 % 91 % 0 % 1008,1 hPa 0,0 l/m 0,0 km/h (0 Bft) N-NW 337 0 min 0,0 UV-I 2,1 C 4,1 C 0,0 km/h (0 Bft)
14.10.2012 01:20 3,7 C 16,0 C 5,3 C 4,1 C 4,1 C 0,4 C 89 % 91 % 0 % 1008,1 hPa 0,0 l/m 0,0 km/h (0 Bft) N-NW 337 0 min 0,0 UV-I 2,1 C 4,1 C 0,0 km/h (0 Bft)
14.10.2012 01:25 3,7 C 16,0 C 5,2 C 4,1 C 4,1 C 0,4 C 89 % 91 % 0 % 1008,1 hPa 0,0 l/m 0,0 km/h (0 Bft) N-NW 337 0 min 0,0 UV-I 2,1 C 4,1 C 0,0 km/h (0 Bft)
14.10.2012 01:30 3,7 C 16,0 C 5,2 C 4,1 C 4,1 C 0,4 C 89 % 91 % 0 % 1008,1 hPa 0,0 l/m 0,0 km/h (0 Bft) N-NW 337 0 min 0,0 UV-I 2,1 C 4,1 C 0,0 km/h (0 Bft)
14.10.2012 01:35 3,7 C 16,0 C 5,2 C 4,2 C 4,2 C 0,5 C 89 % 91 % 0 % 1008,1 hPa 0,0 l/m 0,0 km/h (0 Bft) W-NW 292 0 min 0,0 UV-I 2,1 C 4,2 C 0,0 km/h (0 Bft)
14.10.2012 01:40 3,7 C 16,0 C 5,3 C 4,2 C 4,2 C 0,5 C 89 % 91 % 0 % 1008,1 hPa 0,0 l/m 0,0 km/h (0 Bft) SW 225 0 min 0,0 UV-I 2,1 C 4,2 C 0,0 km/h (0 Bft)
14.10.2012 01:45 3,6 C 16,0 C 5,2 C 4,2 C 4,2 C 0,6 C 89 % 91 % 0 % 1008,1 hPa 0,0 l/m 0,0 km/h (0 Bft) W 270 0 min 0,0 UV-I 2,0 C 4,2 C 0,0 km/h (0 Bft)
14.10.2012 01:50 3,6 C 16,0 C 5,2 C 4,2 C 4,2 C 0,6 C 89 % 91 % 0 % 1008,1 hPa 0,0 l/m 0,0 km/h (0 Bft) W 270 0 min 0,0 UV-I 2,0 C 4,2 C 0,0 km/h (0 Bft)
14.10.2012 01:55 3,6 C 15,9 C 5,4 C 4,3 C 4,3 C 0,7 C 89 % 91 % 0 % 1008,1 hPa 0,0 l/m 0,2 km/h (0 Bft) SW 225 0 min 0,0 UV-I 2,0 C 4,3 C 0,0 km/h (0 Bft)
14.10.2012 02:00 3,6 C 15,9 C 5,3 C 4,3 C 4,3 C 0,7 C 89 % 91 % 0 % 1007,9 hPa 0,0 l/m 0,3 km/h (0 Bft) S 180 0 min 0,0 UV-I 2,0 C 4,3 C 2,3 km/h (1 Bft)
14.10.2012 02:05 3,6 C 15,9 C 5,3 C 4,2 C 4,2 C 0,6 C 89 % 91 % 0 % 1007,9 hPa 0,0 l/m 0,2 km/h (0 Bft) O 90 0 min 0,0 UV-I 2,0 C 4,2 C 0,0 km/h (0 Bft)
14.10.2012 02:10 3,7 C 15,9 C 5,3 C 4,4 C 4,4 C 0,7 C 90 % 91 % 0 % 1007,9 hPa 0,0 l/m 0,0 km/h (0 Bft) SW 225 0 min 0,0 UV-I 2,2 C 4,4 C 0,0 km/h (0 Bft)
14.10.2012 02:15 3,8 C 15,9 C 5,5 C 4,6 C 4,6 C 0,8 C 90 % 91 % 0 % 1007,9 hPa 0,0 l/m 0,3 km/h (0 Bft) W 270 0 min 0,0 UV-I 2,3 C 4,6 C 1,8 km/h (1 Bft)
14.10.2012 02:20 3,9 C 15,9 C 5,4 C 4,6 C 4,6 C 0,7 C 90 % 91 % 0 % 1007,8 hPa 0,0 l/m 0,5 km/h (0 Bft) W 270 0 min 0,0 UV-I 2,4 C 4,6 C 3,2 km/h (1 Bft)
14.10.2012 02:25 3,9 C 15,9 C 5,3 C 4,5 C 4,5 C 0,6 C 90 % 91 % 0 % 1007,8 hPa 0,0 l/m 0,5 km/h (0 Bft) W-SW 247 0 min 0,0 UV-I 2,4 C 4,5 C 0,0 km/h (0 Bft)
14.10.2012 02:30 3,9 C 15,9 C 5,5 C 4,5 C 4,5 C 0,6 C 90 % 91 % 0 % 1007,8 hPa 0,0 l/m 0,5 km/h (0 Bft) W 270 0 min 0,0 UV-I 2,4 C 4,5 C 0,0 km/h (0 Bft)
14.10.2012 02:35 3,8 C 15,7 C 5,5 C 4,7 C 4,7 C 0,9 C 90 % 91 % 0 % 1007,8 hPa 0,0 l/m 0,5 km/h (0 Bft) NO 45 0 min 0,0 UV-I 2,3 C 4,7 C 0,0 km/h (0 Bft)
14.10.2012 02:40 3,9 C 15,8 C 5,7 C 4,9 C 4,9 C 1,0 C 90 % 91 % 0 % 1007,7 hPa 0,0 l/m 0,5 km/h (0 Bft) SW 225 0 min 0,0 UV-I 2,4 C 4,9 C 3,9 km/h (1 Bft)
14.10.2012 02:45 4,0 C 15,7 C 5,7 C 5,1 C 5,1 C 1,1 C 90 % 91 % 0 % 1007,7 hPa 0,0 l/m 0,5 km/h (0 Bft) S 180 0 min 0,0 UV-I 2,5 C 5,1 C 0,0 km/h (0 Bft)
14.10.2012 02:50 4,3 C 15,7 C 5,9 C 5,4 C 5,4 C 1,1 C 90 % 92 % 0 % 1007,7 hPa 0,0 l/m 0,6 km/h (0 Bft) W 270 0 min 0,0 UV-I 2,8 C 5,4 C 4,2 km/h (1 Bft)
14.10.2012 02:55 4,3 C 15,8 C 5,9 C 5,4 C 5,4 C 1,1 C 90 % 92 % 0 % 1007,7 hPa 0,0 l/m 0,3 km/h (0 Bft) O-SO 112 0 min 0,0 UV-I 2,8 C 5,4 C 0,0 km/h (0 Bft)
14.10.2012 03:00 4,3 C 15,8 C 5,9 C 5,4 C 5,4 C 1,1 C 90 % 92 % 0 % 1007,5 hPa 0,0 l/m 0,3 km/h (0 Bft) N-NO 22 0 min 0,0 UV-I 2,8 C 5,4 C 0,0 km/h (0 Bft)
14.10.2012 03:05 4,5 C 15,7 C 6,3 C 5,7 C 5,7 C 1,2 C 90 % 92 % 0 % 1007,5 hPa 0,0 l/m 0,3 km/h (0 Bft) SW 225 0 min 0,0 UV-I 3,0 C 5,7 C 2,9 km/h (1 Bft)
14.10.2012 03:10 4,6 C 15,7 C 6,2 C 5,6 C 5,6 C 1,0 C 90 % 92 % 0 % 1007,5 hPa 0,0 l/m 0,5 km/h (0 Bft) S-SO 157 0 min 0,0 UV-I 3,1 C 5,6 C 1,6 km/h (1 Bft)
14.10.2012 03:15 4,8 C 15,5 C 6,4 C 5,9 C 5,9 C 1,1 C 91 % 92 % 0 % 1007,5 hPa 0,0 l/m 1,0 km/h (0 Bft) SO 135 0 min 0,0 UV-I 3,5 C 5,9 C 4,5 km/h (1 Bft)
14.10.2012 03:20 5,2 C 15,4 C 6,9 C 6,4 C 6,4 C 1,2 C 91 % 92 % 0 % 1007,4 hPa 0,0 l/m 1,6 km/h (1 Bft) S 180 0 min 0,0 UV-I 3,9 C 6,4 C 6,6 km/h (2 Bft)
14.10.2012 03:25 5,9 C 15,4 C 7,4 C 7,0 C 7,0 C 1,1 C 92 % 92 % 0 % 1007,4 hPa 0,0 l/m 1,9 km/h (1 Bft) S-SO 157 0 min 0,0 UV-I 4,7 C 7,0 C 1,8 km/h (1 Bft)
14.10.2012 03:30 6,3 C 15,4 C 7,6 C 7,3 C 7,3 C 1,0 C 92 % 92 % 0 % 1007,4 hPa 0,0 l/m 1,6 km/h (1 Bft) SW 225 0 min 0,0 UV-I 5,1 C 7,3 C 7,1 km/h (2 Bft)
14.10.2012 03:35 6,9 C 15,4 C 8,1 C 7,8 C 7,8 C 0,9 C 91 % 91 % 0 % 1007,4 hPa 0,0 l/m 1,8 km/h (1 Bft) S-SW 202 0 min 0,0 UV-I 5,5 C 7,8 C 3,5 km/h (1 Bft)
14.10.2012 03:40 7,2 C 15,4 C 8,3 C 8,2 C 8,2 C 1,0 C 90 % 91 % 0 % 1007,3 hPa 0,0 l/m 2,6 km/h (1 Bft) S 180 0 min 0,0 UV-I 5,7 C 8,2 C 7,6 km/h (2 Bft)
14.10.2012 03:45 7,6 C 15,4 C 8,5 C 8,6 C 8,6 C 1,0 C 89 % 90 % 0 % 1007,3 hPa 0,0 l/m 3,4 km/h (1 Bft) SO 135 0 min 0,0 UV-I 5,9 C 8,6 C 13,7 km/h (3 Bft)
14.10.2012 03:50 7,9 C 15,4 C 8,7 C 8,9 C 8,9 C 1,0 C 88 % 89 % 0 % 1007,3 hPa 0,0 l/m 2,9 km/h (1 Bft) SO 135 0 min 0,0 UV-I 6,0 C 8,9 C 7,6 km/h (2 Bft)
14.10.2012 03:55 8,1 C 15,4 C 8,6 C 9,2 C 9,2 C 1,1 C 86 % 89 % 0 % 1007,3 hPa 0,0 l/m 2,7 km/h (1 Bft) S 180 0 min 0,0 UV-I 5,9 C 9,2 C 3,7 km/h (1 Bft)
14.10.2012 04:00 8,3 C 15,4 C 8,6 C 9,3 C 9,3 C 1,0 C 84 % 88 % 0 % 1006,4 hPa 0,0 l/m 3,2 km/h (1 Bft) W-SW 247 0 min 0,0 UV-I 5,8 C 9,3 C 1,6 km/h (1 Bft)
14.10.2012 04:05 8,5 C 15,4 C 8,7 C 9,4 C 9,4 C 0,9 C 83 % 88 % 0 % 1006,4 hPa 0,0 l/m 2,6 km/h (1 Bft) SO 135 0 min 0,0 UV-I 5,8 C 9,4 C 2,7 km/h (1 Bft)
14.10.2012 04:10 8,6 C 15,4 C 8,7 C 9,5 C 9,5 C 0,9 C 82 % 88 % 0 % 1006,4 hPa 0,0 l/m 1,9 km/h (1 Bft) SW 225 0 min 0,0 UV-I 5,7 C 9,5 C 3,7 km/h (1 Bft)
14.10.2012 04:15 8,8 C 15,4 C 8,8 C 9,5 C 9,5 C 0,7 C 81 % 87 % 0 % 1006,4 hPa 0,0 l/m 2,3 km/h (1 Bft) W 270 0 min 0,0 UV-I 5,7 C 9,5 C 4,5 km/h (1 Bft)
14.10.2012 04:20 8,9 C 15,3 C 8,9 C 9,6 C 9,6 C 0,7 C 81 % 87 % 0 % 1006,8 hPa 0,0 l/m 2,1 km/h (1 Bft) W-SW 247 0 min 0,0 UV-I 5,8 C 9,6 C 3,9 km/h (1 Bft)
14.10.2012 04:25 9,1 C 15,3 C 8,8 C 9,6 C 9,6 C 0,5 C 80 % 87 % 0 % 1006,8 hPa 0,0 l/m 2,9 km/h (1 Bft) W-SW 247 0 min 0,0 UV-I 5,8 C 9,6 C 2,6 km/h (1 Bft)
14.10.2012 04:30 9,0 C 15,3 C 8,9 C 9,6 C 9,6 C 0,6 C 79 % 87 % 0 % 1006,8 hPa 0,0 l/m 2,9 km/h (1 Bft) O-SO 112 0 min 0,0 UV-I 5,6 C 9,6 C 3,2 km/h (1 Bft)
14.10.2012 04:35 9,2 C 15,2 C 8,9 C 9,6 C 9,6 C 0,4 C 78 % 86 % 0 % 1006,8 hPa 0,0 l/m 2,6 km/h (1 Bft) SW 225 0 min 0,0 UV-I 5,6 C 9,6 C 4,2 km/h (1 Bft)
14.10.2012 04:40 9,3 C 15,2 C 9,0 C 9,6 C 9,6 C 0,3 C 78 % 85 % 0 % 1006,9 hPa 0,0 l/m 2,6 km/h (1 Bft) W-SW 247 0 min 0,0 UV-I 5,7 C 9,6 C 6,0 km/h (2 Bft)
14.10.2012 04:45 9,3 C 15,2 C 9,1 C 9,6 C 9,6 C 0,3 C 78 % 85 % 0 % 1006,9 hPa 0,0 l/m 2,3 km/h (1 Bft) O-SO 112 0 min 0,0 UV-I 5,7 C 9,6 C 2,3 km/h (1 Bft)
14.10.2012 04:50 9,5 C 15,2 C 9,1 C 9,6 C 9,6 C 0,1 C 77 % 84 % 0 % 1006,9 hPa 0,0 l/m 2,3 km/h (1 Bft) NW 315 0 min 0,0 UV-I 5,7 C 9,6 C 7,6 km/h (2 Bft)
14.10.2012 04:55 9,5 C 15,2 C 9,1 C 9,6 C 9,6 C 0,1 C 77 % 84 % 0 % 1006,9 hPa 0,0 l/m 2,1 km/h (1 Bft) S 180 0 min 0,0 UV-I 5,7 C 9,6 C 5,1 km/h (1 Bft)
14.10.2012 05:00 9,5 C 15,2 C 9,1 C 9,6 C 9,6 C 0,1 C 77 % 84 % 0 % 1007,1 hPa 0,0 l/m 2,3 km/h (1 Bft) SO 135 0 min 0,0 UV-I 5,7 C 9,6 C 2,1 km/h (1 Bft)
14.10.2012 05:05 9,5 C 15,2 C 9,1 C 9,5 C 9,5 C 0,0 C 76 % 84 % 0 % 1007,1 hPa 0,0 l/m 2,3 km/h (1 Bft) W-SW 247 0 min 0,0 UV-I 5,5 C 9,5 C 4,2 km/h (1 Bft)
14.10.2012 05:10 9,5 C 15,2 C 9,0 C 9,5 C 9,4 C 0,0 C 77 % 84 % 0 % 1007,1 hPa 0,0 l/m 2,1 km/h (1 Bft) O-NO 67 0 min 0,0 UV-I 5,7 C 9,4 C 1,9 km/h (1 Bft)
14.10.2012 05:15 9,3 C 15,2 C 9,0 C 9,3 C 9,3 C 0,0 C 76 % 84 % 0 % 1007,1 hPa 0,0 l/m 1,8 km/h (1 Bft) S-SO 157 0 min 0,0 UV-I 5,3 C 9,3 C 0,0 km/h (0 Bft)
14.10.2012 05:20 9,3 C 15,2 C 9,1 C 9,3 C 9,3 C 0,0 C 77 % 84 % 0 % 1007,2 hPa 0,0 l/m 1,4 km/h (1 Bft) SO 135 0 min 0,0 UV-I 5,5 C 9,3 C 3,2 km/h (1 Bft)
14.10.2012 05:25 9,2 C 15,2 C 8,9 C 9,2 C 9,2 C 0,0 C 77 % 84 % 0 % 1007,2 hPa 0,0 l/m 1,3 km/h (1 Bft) NO 45 0 min 0,0 UV-I 5,4 C 9,2 C 0,0 km/h (0 Bft)
14.10.2012 05:30 9,2 C 15,2 C 8,9 C 9,2 C 9,1 C 0,0 C 77 % 84 % 0 % 1007,2 hPa 0,0 l/m 1,6 km/h (1 Bft) NW 315 0 min 0,0 UV-I 5,4 C 9,1 C 0,0 km/h (0 Bft)
14.10.2012 05:35 9,1 C 15,2 C 8,9 C 9,1 C 9,0 C 0,0 C 77 % 84 % 0 % 1007,2 hPa 0,0 l/m 1,3 km/h (1 Bft) S-SO 157 0 min 0,0 UV-I 5,3 C 9,0 C 5,3 km/h (1 Bft)
14.10.2012 05:40 9,1 C 15,2 C 8,9 C 9,1 C 9,0 C 0,0 C 77 % 84 % 0 % 1007,2 hPa 0,0 l/m 1,1 km/h (1 Bft) SO 135 0 min 0,0 UV-I 5,3 C 9,0 C 0,0 km/h (0 Bft)
14.10.2012 05:45 9,0 C 15,3 C 8,8 C 9,0 C 9,0 C 0,0 C 77 % 84 % 0 % 1007,2 hPa 0,0 l/m 1,4 km/h (1 Bft) W 270 0 min 0,0 UV-I 5,2 C 9,0 C 3,1 km/h (1 Bft)
14.10.2012 05:50 9,1 C 15,3 C 8,9 C 9,1 C 9,0 C 0,0 C 77 % 84 % 0 % 1007,2 hPa 0,0 l/m 1,6 km/h (1 Bft) W-SW 247 0 min 0,0 UV-I 5,3 C 9,0 C 1,9 km/h (1 Bft)
14.10.2012 05:55 9,1 C 15,3 C 8,8 C 9,1 C 9,0 C 0,0 C 77 % 84 % 0 % 1007,2 hPa 0,0 l/m 2,1 km/h (1 Bft) S 180 0 min 0,0 UV-I 5,3 C 9,0 C 2,1 km/h (1 Bft)
14.10.2012 06:00 9,1 C 15,3 C 8,8 C 9,1 C 9,0 C 0,0 C 77 % 84 % 0 % 1007,1 hPa 0,0 l/m 1,8 km/h (1 Bft) S-SO 157 0 min 0,0 UV-I 5,3 C 9,0 C 2,7 km/h (1 Bft)
14.10.2012 06:05 8,9 C 15,3 C 8,8 C 8,9 C 8,8 C 0,0 C 77 % 84 % 0 % 1007,1 hPa 0,0 l/m 1,1 km/h (1 Bft) O 90 0 min 0,0 UV-I 5,1 C 8,8 C 2,4 km/h (1 Bft)
14.10.2012 06:10 8,9 C 15,3 C 8,8 C 8,9 C 8,8 C 0,0 C 77 % 83 % 0 % 1007,1 hPa 0,0 l/m 1,1 km/h (1 Bft) S-SO 157 0 min 0,0 UV-I 5,1 C 8,8 C 3,1 km/h (1 Bft)
14.10.2012 06:15 8,9 C 15,3 C 8,7 C 8,8 C 8,7 C 0,0 C 76 % 83 % 0 % 1007,1 hPa 0,0 l/m 1,3 km/h (1 Bft) N-NW 337 0 min 0,0 UV-I 4,9 C 8,7 C 0,0 km/h (0 Bft)
14.10.2012 06:20 8,9 C 15,3 C 8,6 C 8,8 C 8,5 C 0,0 C 76 % 83 % 0 % 1007,1 hPa 0,0 l/m 0,8 km/h (0 Bft) W-SW 247 0 min 0,0 UV-I 4,9 C 8,5 C 1,9 km/h (1 Bft)
14.10.2012 06:25 8,7 C 15,3 C 8,5 C 8,5 C 8,2 C 0,0 C 76 % 83 % 0 % 1007,1 hPa 0,0 l/m 0,5 km/h (0 Bft) S 180 0 min 0,0 UV-I 4,7 C 8,2 C 1,8 km/h (1 Bft)
14.10.2012 06:30 8,7 C 15,3 C 8,5 C 8,5 C 8,0 C 0,0 C 77 % 83 % 0 % 1007,1 hPa 0,0 l/m 0,3 km/h (0 Bft) SW 225 0 min 0,0 UV-I 4,9 C 8,0 C 0,0 km/h (0 Bft)
14.10.2012 06:35 8,4 C 15,3 C 8,2 C 8,2 C 7,8 C 0,0 C 77 % 84 % 0 % 1007,1 hPa 0,0 l/m 0,2 km/h (0 Bft) W-SW 247 0 min 0,0 UV-I 4,6 C 7,8 C 1,8 km/h (1 Bft)
14.10.2012 06:41 8,3 C 15,3 C 8,3 C 8,1 C 7,7 C 0,0 C 77 % 84 % 0 % 1007,2 hPa 0,0 l/m 0,2 km/h (0 Bft) N 0 0 min 0,0 UV-I 4,5 C 7,7 C 0,0 km/h (0 Bft)
14.10.2012 06:55 8,1 C 15,3 C 8,3 C 8,0 C 7,9 C 0,0 C 78 % 84 % 0 % 1007,2 hPa 0,0 l/m 0,5 km/h (0 Bft) W-SW 247 0 min 0,0 UV-I 4,5 C 7,9 C 3,1 km/h (1 Bft)
14.10.2012 07:00 8,0 C 15,3 C 8,3 C 8,0 C 7,9 C 0,0 C 78 % 84 % 0 % 1007,6 hPa 0,0 l/m 0,3 km/h (0 Bft) O-NO 67 0 min 0,0 UV-I 4,4 C 7,9 C 0,0 km/h (0 Bft)
14.10.2012 07:05 8,0 C 15,3 C 8,3 C 8,0 C 8,0 C 0,0 C 78 % 84 % 0 % 1007,6 hPa 0,0 l/m 1,0 km/h (0 Bft) S 180 0 min 0,0 UV-I 4,4 C 8,0 C 2,7 km/h (1 Bft)
14.10.2012 07:10 8,0 C 15,3 C 8,2 C 8,0 C 8,0 C 0,0 C 78 % 84 % 0 % 1007,6 hPa 0,0 l/m 1,3 km/h (1 Bft) S-SO 157 0 min 0,0 UV-I 4,4 C 8,0 C 4,0 km/h (1 Bft)
14.10.2012 07:15 8,0 C 15,3 C 8,3 C 8,0 C 8,0 C 0,0 C 78 % 84 % 0 % 1007,6 hPa 0,0 l/m 0,8 km/h (0 Bft) W 270 0 min 0,0 UV-I 4,4 C 8,0 C 0,0 km/h (0 Bft)
14.10.2012 07:20 8,1 C 15,3 C 8,3 C 8,1 C 8,0 C 0,0 C 78 % 84 % 0 % 1007,4 hPa 0,0 l/m 0,8 km/h (0 Bft) SO 135 0 min 0,0 UV-I 4,5 C 8,0 C 2,9 km/h (1 Bft)
14.10.2012 07:25 8,1 C 15,3 C 8,2 C 8,1 C 8,0 C 0,0 C 78 % 84 % 0 % 1007,4 hPa 0,0 l/m 1,0 km/h (0 Bft) S 180 0 min 0,0 UV-I 4,5 C 8,0 C 0,0 km/h (0 Bft)
14.10.2012 07:30 8,0 C 15,3 C 8,3 C 8,0 C 8,0 C 0,0 C 78 % 84 % 0 % 1007,4 hPa 0,0 l/m 1,1 km/h (1 Bft) S-SW 202 0 min 0,0 UV-I 4,4 C 8,0 C 6,6 km/h (2 Bft)
14.10.2012 07:35 8,0 C 15,3 C 8,2 C 8,0 C 8,0 C 0,0 C 78 % 84 % 0 % 1007,4 hPa 0,0 l/m 0,5 km/h (0 Bft) W-SW 247 0 min 0,0 UV-I 4,4 C 8,0 C 2,3 km/h (1 Bft)
14.10.2012 07:40 8,0 C 15,3 C 8,2 C 8,1 C 8,1 C 0,1 C 78 % 84 % 0 % 1007,4 hPa 0,0 l/m 1,4 km/h (1 Bft) W 270 0 min 0,0 UV-I 4,4 C 8,1 C 2,9 km/h (1 Bft)
14.10.2012 07:45 8,0 C 15,3 C 8,3 C 8,3 C 8,3 C 0,3 C 78 % 84 % 8 % 1007,4 hPa 0,0 l/m 1,8 km/h (1 Bft) O-NO 67 5 min 0,0 UV-I 4,4 C 8,3 C 0,0 km/h (0 Bft)
14.10.2012 07:50 8,0 C 15,3 C 8,3 C 8,3 C 8,3 C 0,3 C 78 % 84 % 8 % 1007,4 hPa 0,0 l/m 1,4 km/h (1 Bft) W-SW 247 0 min 0,0 UV-I 4,4 C 8,3 C 7,7 km/h (2 Bft)
14.10.2012 07:55 8,1 C 15,3 C 8,5 C 8,4 C 8,4 C 0,3 C 78 % 84 % 8 % 1007,4 hPa 0,0 l/m 1,1 km/h (1 Bft) SW 225 0 min 0,0 UV-I 4,5 C 8,4 C 2,1 km/h (1 Bft)
14.10.2012 08:00 8,1 C 15,3 C 8,4 C 8,4 C 8,4 C 0,3 C 78 % 83 % 8 % 1007,6 hPa 0,0 l/m 1,0 km/h (0 Bft) O 90 0 min 0,0 UV-I 4,5 C 8,4 C 0,0 km/h (0 Bft)
14.10.2012 08:05 8,1 C 15,3 C 8,4 C 8,5 C 8,5 C 0,4 C 78 % 83 % 11 % 1007,6 hPa 0,0 l/m 0,6 km/h (0 Bft) O-NO 67 0 min 0,0 UV-I 4,5 C 8,5 C 0,0 km/h (0 Bft)
14.10.2012 08:10 8,1 C 15,3 C 8,4 C 8,5 C 8,5 C 0,4 C 78 % 83 % 11 % 1007,6 hPa 0,0 l/m 0,5 km/h (0 Bft) S 180 0 min 0,0 UV-I 4,5 C 8,5 C 0,0 km/h (0 Bft)
14.10.2012 08:15 8,2 C 15,3 C 8,5 C 8,5 C 8,5 C 0,3 C 78 % 83 % 8 % 1007,6 hPa 0,0 l/m 0,6 km/h (0 Bft) S 180 0 min 0,0 UV-I 4,6 C 8,5 C 2,4 km/h (1 Bft)
14.10.2012 08:20 8,2 C 15,3 C 8,4 C 8,6 C 8,6 C 0,4 C 78 % 83 % 11 % 1008,0 hPa 0,0 l/m 0,8 km/h (0 Bft) S-SW 202 0 min 0,0 UV-I 4,6 C 8,6 C 1,9 km/h (1 Bft)
14.10.2012 08:25 8,3 C 15,3 C 8,5 C 8,7 C 8,7 C 0,4 C 77 % 83 % 11 % 1008,0 hPa 0,0 l/m 1,3 km/h (1 Bft) SW 225 0 min 0,0 UV-I 4,5 C 8,7 C 1,6 km/h (1 Bft)
14.10.2012 08:30 8,3 C 15,3 C 8,5 C 8,8 C 8,8 C 0,5 C 77 % 83 % 13 % 1008,0 hPa 0,0 l/m 1,4 km/h (1 Bft) SW 225 0 min 0,0 UV-I 4,5 C 8,8 C 2,9 km/h (1 Bft)
14.10.2012 08:35 8,4 C 15,3 C 8,7 C 8,9 C 8,9 C 0,5 C 77 % 83 % 13 % 1008,0 hPa 0,0 l/m 1,1 km/h (1 Bft) S-SO 157 0 min 0,0 UV-I 4,6 C 8,9 C 0,0 km/h (0 Bft)
14.10.2012 08:40 8,5 C 15,3 C 8,7 C 9,0 C 9,0 C 0,5 C 77 % 83 % 13 % 1007,9 hPa 0,0 l/m 1,0 km/h (0 Bft) S 180 0 min 0,0 UV-I 4,7 C 9,0 C 0,0 km/h (0 Bft)
14.10.2012 08:45 8,5 C 15,3 C 8,8 C 9,2 C 9,2 C 0,7 C 77 % 83 % 18 % 1007,9 hPa 0,0 l/m 1,0 km/h (0 Bft) N-NO 22 0 min 0,0 UV-I 4,7 C 9,2 C 1,8 km/h (1 Bft)
14.10.2012 08:50 8,5 C 15,3 C 8,8 C 9,3 C 9,3 C 0,8 C 77 % 83 % 21 % 1007,9 hPa 0,0 l/m 1,0 km/h (0 Bft) W 270 0 min 0,0 UV-I 4,7 C 9,3 C 4,2 km/h (1 Bft)
14.10.2012 08:55 8,7 C 15,3 C 8,8 C 9,5 C 9,5 C 0,8 C 77 % 82 % 21 % 1007,9 hPa 0,0 l/m 0,8 km/h (0 Bft) SO 135 0 min 0,0 UV-I 4,9 C 9,5 C 2,1 km/h (1 Bft)
14.10.2012 09:00 8,7 C 15,3 C 8,9 C 9,6 C 9,6 C 0,9 C 77 % 82 % 24 % 1007,9 hPa 0,0 l/m 1,3 km/h (1 Bft) S 180 0 min 0,0 UV-I 4,9 C 9,6 C 3,7 km/h (1 Bft)
14.10.2012 09:05 8,8 C 15,3 C 8,9 C 9,6 C 9,6 C 0,8 C 77 % 82 % 21 % 1007,9 hPa 0,0 l/m 1,9 km/h (1 Bft) W-NW 292 0 min 0,0 UV-I 5,0 C 9,6 C 0,0 km/h (0 Bft)
14.10.2012 09:10 8,8 C 15,3 C 8,9 C 9,5 C 9,5 C 0,7 C 76 % 82 % 18 % 1007,9 hPa 0,0 l/m 1,9 km/h (1 Bft) S-SO 157 0 min 0,0 UV-I 4,8 C 9,5 C 3,2 km/h (1 Bft)
14.10.2012 09:15 8,8 C 15,3 C 8,9 C 9,5 C 9,5 C 0,7 C 77 % 82 % 18 % 1007,9 hPa 0,0 l/m 1,3 km/h (1 Bft) SO 135 0 min 0,0 UV-I 5,0 C 9,5 C 1,8 km/h (1 Bft)
14.10.2012 09:20 8,8 C 15,3 C 8,9 C 9,5 C 9,5 C 0,7 C 76 % 82 % 18 % 1007,7 hPa 0,0 l/m 1,0 km/h (0 Bft) W-SW 247 0 min 0,0 UV-I 4,8 C 9,5 C 4,7 km/h (1 Bft)
14.10.2012 09:25 8,9 C 15,3 C 9,1 C 9,5 C 9,5 C 0,6 C 76 % 82 % 16 % 1007,7 hPa 0,0 l/m 0,6 km/h (0 Bft) SW 225 0 min 0,0 UV-I 4,9 C 9,5 C 2,4 km/h (1 Bft)
14.10.2012 09:30 8,8 C 15,3 C 9,1 C 9,6 C 9,6 C 0,8 C 76 % 81 % 21 % 1007,7 hPa 0,0 l/m 0,5 km/h (0 Bft) S 180 0 min 0,0 UV-I 4,8 C 9,6 C 0,0 km/h (0 Bft)
14.10.2012 09:35 8,9 C 15,3 C 9,1 C 9,7 C 9,7 C 0,8 C 76 % 82 % 21 % 1007,7 hPa 0,0 l/m 0,5 km/h (0 Bft) S 180 0 min 0,0 UV-I 4,9 C 9,7 C 5,6 km/h (1 Bft)
14.10.2012 09:40 8,9 C 15,3 C 9,1 C 9,8 C 9,8 C 0,9 C 76 % 81 % 24 % 1007,7 hPa 0,0 l/m 0,8 km/h (0 Bft) SO 135 0 min 0,0 UV-I 4,9 C 9,8 C 2,4 km/h (1 Bft)
14.10.2012 09:45 9,1 C 15,3 C 9,1 C 9,8 C 9,8 C 0,7 C 76 % 81 % 18 % 1007,7 hPa 0,0 l/m 1,1 km/h (1 Bft) SW 225 0 min 0,0 UV-I 5,1 C 9,8 C 0,0 km/h (0 Bft)
14.10.2012 09:50 9,1 C 15,3 C 9,1 C 9,7 C 9,7 C 0,6 C 76 % 81 % 16 % 1007,7 hPa 0,0 l/m 1,0 km/h (0 Bft) SW 225 0 min 0,0 UV-I 5,1 C 9,7 C 0,0 km/h (0 Bft)
14.10.2012 09:55 9,1 C 15,3 C 9,2 C 9,6 C 9,6 C 0,5 C 76 % 81 % 13 % 1007,7 hPa 0,0 l/m 0,8 km/h (0 Bft) SW 225 0 min 0,0 UV-I 5,1 C 9,6 C 0,0 km/h (0 Bft)
14.10.2012 10:00 9,1 C 15,3 C 9,2 C 9,6 C 9,6 C 0,5 C 76 % 81 % 13 % 1007,8 hPa 0,0 l/m 0,5 km/h (0 Bft) S-SO 157 0 min 0,0 UV-I 5,1 C 9,6 C 0,0 km/h (0 Bft)
14.10.2012 10:05 9,1 C 15,3 C 9,2 C 9,7 C 9,7 C 0,6 C 76 % 81 % 16 % 1007,8 hPa 0,0 l/m 0,3 km/h (0 Bft) N-NO 22 0 min 0,0 UV-I 5,1 C 9,7 C 0,0 km/h (0 Bft)
14.10.2012 10:10 9,1 C 15,3 C 9,2 C 9,8 C 9,8 C 0,7 C 76 % 81 % 18 % 1007,8 hPa 0,0 l/m 0,5 km/h (0 Bft) S-SW 202 0 min 0,0 UV-I 5,1 C 9,8 C 3,7 km/h (1 Bft)
14.10.2012 10:15 9,1 C 15,3 C 9,3 C 10,1 C 10,1 C 1,0 C 76 % 81 % 26 % 1007,8 hPa 0,0 l/m 1,1 km/h (1 Bft) S 180 0 min 0,1 UV-I 5,1 C 10,1 C 2,6 km/h (1 Bft)
14.10.2012 10:20 9,3 C 15,2 C 9,5 C 10,3 C 10,3 C 1,0 C 76 % 81 % 26 % 1007,8 hPa 0,0 l/m 1,1 km/h (1 Bft) W-NW 292 0 min 0,2 UV-I 5,3 C 10,3 C 1,8 km/h (1 Bft)
14.10.2012 10:25 9,5 C 15,2 C 9,7 C 10,9 C 10,9 C 1,4 C 75 % 81 % 37 % 1007,8 hPa 0,0 l/m 1,6 km/h (1 Bft) W-SW 247 0 min 0,2 UV-I 5,3 C 10,9 C 3,1 km/h (1 Bft)
14.10.2012 10:30 9,5 C 15,2 C 9,6 C 10,7 C 10,7 C 1,2 C 74 % 80 % 32 % 1007,8 hPa 0,0 l/m 2,3 km/h (1 Bft) SO 135 0 min 0,2 UV-I 5,1 C 10,7 C 4,5 km/h (1 Bft)
14.10.2012 10:35 9,5 C 15,2 C 9,5 C 10,4 C 10,4 C 0,9 C 74 % 80 % 24 % 1007,8 hPa 0,0 l/m 2,4 km/h (1 Bft) S-SO 157 0 min 0,3 UV-I 5,1 C 10,4 C 5,3 km/h (1 Bft)
14.10.2012 10:40 9,5 C 15,2 C 9,5 C 10,4 C 10,4 C 0,9 C 74 % 80 % 24 % 1007,4 hPa 0,0 l/m 2,3 km/h (1 Bft) S 180 0 min 0,3 UV-I 5,1 C 10,4 C 6,8 km/h (2 Bft)
14.10.2012 10:45 9,7 C 15,2 C 9,6 C 10,3 C 10,3 C 0,6 C 72 % 79 % 16 % 1007,4 hPa 0,0 l/m 3,2 km/h (1 Bft) S 180 0 min 0,3 UV-I 4,9 C 10,3 C 4,8 km/h (1 Bft)
14.10.2012 10:50 9,7 C 15,2 C 9,6 C 10,4 C 10,4 C 0,7 C 72 % 78 % 18 % 1007,4 hPa 0,0 l/m 3,7 km/h (1 Bft) W-SW 247 0 min 0,3 UV-I 4,9 C 10,4 C 4,8 km/h (1 Bft)
14.10.2012 10:55 9,8 C 15,2 C 9,7 C 10,3 C 10,3 C 0,5 C 70 % 77 % 13 % 1007,4 hPa 0,0 l/m 3,9 km/h (1 Bft) S 180 0 min 0,3 UV-I 4,6 C 10,3 C 1,9 km/h (1 Bft)
14.10.2012 11:00 9,9 C 15,2 C 9,7 C 10,3 C 10,3 C 0,4 C 70 % 77 % 11 % 1007,6 hPa 0,0 l/m 4,0 km/h (1 Bft) S-SW 202 0 min 0,4 UV-I 4,7 C 10,3 C 5,1 km/h (1 Bft)
14.10.2012 11:05 10,0 C 15,2 C 9,9 C 10,5 C 10,5 C 0,5 C 70 % 77 % 13 % 1007,6 hPa 0,0 l/m 3,9 km/h (1 Bft) W-SW 247 0 min 0,4 UV-I 4,8 C 10,5 C 3,4 km/h (1 Bft)
14.10.2012 11:10 10,1 C 15,2 C 9,9 C 10,6 C 10,6 C 0,5 C 70 % 77 % 13 % 1007,6 hPa 0,0 l/m 3,4 km/h (1 Bft) O-NO 67 0 min 0,4 UV-I 4,9 C 10,6 C 2,1 km/h (1 Bft)
14.10.2012 11:15 10,3 C 15,2 C 10,1 C 10,7 C 10,7 C 0,4 C 69 % 75 % 11 % 1007,6 hPa 0,0 l/m 4,3 km/h (1 Bft) W 270 0 min 0,4 UV-I 4,9 C 10,7 C 13,4 km/h (3 Bft)
14.10.2012 11:20 10,4 C 15,2 C 10,1 C 10,6 C 10,6 C 0,2 C 69 % 76 % 5 % 1007,9 hPa 0,0 l/m 5,0 km/h (1 Bft) S 180 0 min 0,5 UV-I 5,0 C 10,6 C 4,7 km/h (1 Bft)
14.10.2012 11:25 10,5 C 15,2 C 10,2 C 10,5 C 10,4 C 0,0 C 68 % 75 % 0 % 1007,9 hPa 0,0 l/m 6,1 km/h (2 Bft) O-SO 112 0 min 0,5 UV-I 4,8 C 10,4 C 6,3 km/h (2 Bft)
14.10.2012 11:30 10,7 C 15,2 C 10,3 C 10,6 C 10,4 C 0,0 C 67 % 75 % 0 % 1007,9 hPa 0,0 l/m 7,4 km/h (2 Bft) S 180 0 min 0,6 UV-I 4,8 C 10,4 C 6,1 km/h (2 Bft)
14.10.2012 11:35 10,7 C 15,2 C 10,3 C 10,8 C 10,8 C 0,1 C 67 % 74 % 3 % 1007,9 hPa 0,0 l/m 6,3 km/h (2 Bft) S-SW 202 0 min 0,6 UV-I 4,8 C 10,8 C 5,5 km/h (1 Bft)
14.10.2012 11:38 10,7 C 15,2 C 10,3 C 10,8 C 10,8 C 0,1 C 67 % 74 % 3 % 1007,9 hPa 0,0 l/m 6,3 km/h (2 Bft) S-SW 202 0 min 0,6 UV-I 4,8 C 10,8 C 5,5 km/h (1 Bft)
14.10.2012 11:40 10,7 C 15,2 C 10,3 C 10,8 C 10,8 C 0,1 C 67 % 74 % 3 % 1007,9 hPa 0,0 l/m 6,3 km/h (2 Bft) S-SW 202 0 min 0,6 UV-I 4,8 C 10,8 C 5,5 km/h (1 Bft)
14.10.2012 11:45 10,7 C 15,2 C 10,4 C 11,3 C 11,3 C 0,6 C 66 % 74 % 16 % 1007,4 hPa 0,0 l/m 6,4 km/h (2 Bft) W-SW 247 0 min 0,5 UV-I 4,6 C 11,3 C 19,2 km/h (3 Bft)
14.10.2012 11:50 10,9 C 15,2 C 10,5 C 12,1 C 12,1 C 1,2 C 67 % 73 % 32 % 1007,4 hPa 0,0 l/m 6,4 km/h (2 Bft) SW 225 0 min 0,5 UV-I 5,0 C 12,1 C 7,7 km/h (2 Bft)
14.10.2012 11:55 10,8 C 15,2 C 10,7 C 12,4 C 12,4 C 1,6 C 67 % 73 % 42 % 1007,4 hPa 0,0 l/m 5,1 km/h (1 Bft) W-SW 247 0 min 0,6 UV-I 4,9 C 12,4 C 3,9 km/h (1 Bft)
14.10.2012 12:00 10,9 C 15,2 C 10,8 C 12,2 C 12,2 C 1,3 C 67 % 73 % 34 % 1007,4 hPa 0,0 l/m 3,4 km/h (1 Bft) N-NO 22 0 min 0,6 UV-I 5,0 C 12,2 C 0,0 km/h (0 Bft)
14.10.2012 12:05 11,1 C 15,2 C 10,8 C 12,0 C 12,0 C 0,9 C 66 % 73 % 24 % 1007,3 hPa 0,0 l/m 3,5 km/h (1 Bft) W 270 0 min 0,6 UV-I 5,0 C 12,0 C 4,0 km/h (1 Bft)
14.10.2012 12:10 11,2 C 15,2 C 11,1 C 12,1 C 12,1 C 0,9 C 67 % 73 % 24 % 1007,3 hPa 0,0 l/m 3,4 km/h (1 Bft) W-SW 247 0 min 0,7 UV-I 5,3 C 12,1 C 8,0 km/h (2 Bft)
14.10.2012 12:15 11,5 C 15,2 C 11,2 C 13,0 C 13,0 C 1,5 C 66 % 73 % 39 % 1007,3 hPa 0,0 l/m 3,4 km/h (1 Bft) W-SW 247 0 min 0,7 UV-I 5,4 C 13,0 C 4,5 km/h (1 Bft)
14.10.2012 12:20 11,6 C 15,3 C 11,3 C 14,8 C 14,8 C 3,2 C 65 % 72 % 84 % 1007,3 hPa 0,0 l/m 4,0 km/h (1 Bft) S 180 0 min 0,7 UV-I 5,2 C 14,8 C 5,8 km/h (2 Bft)
14.10.2012 12:25 11,6 C 15,3 C 11,5 C 16,2 C 16,2 C 4,6 C 65 % 71 % 100 % 1006,8 hPa 0,0 l/m 3,7 km/h (1 Bft) W-SW 247 5 min 0,8 UV-I 5,2 C 16,2 C 3,2 km/h (1 Bft)
14.10.2012 12:30 11,6 C 15,3 C 11,5 C 17,6 C 17,6 C 6,0 C 66 % 72 % 100 % 1006,8 hPa 0,0 l/m 3,7 km/h (1 Bft) O 90 5 min 0,8 UV-I 5,5 C 17,6 C 5,1 km/h (1 Bft)
14.10.2012 12:35 11,7 C 15,3 C 11,7 C 18,0 C 18,0 C 6,3 C 64 % 71 % 100 % 1006,8 hPa 0,0 l/m 3,7 km/h (1 Bft) W 270 5 min 0,8 UV-I 5,1 C 18,0 C 11,3 km/h (2 Bft)
14.10.2012 12:46 11,8 C 15,3 C 11,5 C 17,3 C 17,3 C 5,5 C 64 % 71 % 100 % 1006,6 hPa 0,0 l/m 4,3 km/h (1 Bft) N 0 11 min 1,0 UV-I 5,2 C 17,3 C 19,2 km/h (3 Bft)
14.10.2012 12:55 11,7 C 15,3 C 11,5 C 16,3 C 16,3 C 4,6 C 64 % 71 % 100 % 1006,6 hPa 0,0 l/m 5,8 km/h (2 Bft) N-NW 337 9 min 0,9 UV-I 5,1 C 16,3 C 3,4 km/h (1 Bft)
14.10.2012 13:00 11,8 C 15,3 C 11,5 C 15,9 C 15,9 C 4,1 C 65 % 71 % 100 % 1006,6 hPa 0,0 l/m 5,1 km/h (1 Bft) SW 225 5 min 1,0 UV-I 5,4 C 15,9 C 2,7 km/h (1 Bft)
14.10.2012 13:05 11,8 C 15,3 C 11,5 C 15,9 C 15,9 C 4,1 C 64 % 70 % 100 % 1006,8 hPa 0,0 l/m 3,7 km/h (1 Bft) S-SW 202 5 min 0,8 UV-I 5,2 C 15,9 C 11,6 km/h (2 Bft)
14.10.2012 13:10 11,8 C 15,3 C 11,5 C 15,0 C 15,0 C 3,2 C 64 % 70 % 84 % 1006,8 hPa 0,0 l/m 4,0 km/h (1 Bft) W-SW 247 0 min 0,8 UV-I 5,2 C 15,0 C 4,2 km/h (1 Bft)
14.10.2012 13:15 11,7 C 15,3 C 11,5 C 14,4 C 14,4 C 2,7 C 64 % 70 % 71 % 1006,8 hPa 0,0 l/m 3,7 km/h (1 Bft) SW 225 0 min 0,6 UV-I 5,1 C 14,4 C 5,0 km/h (1 Bft)
14.10.2012 13:20 11,7 C 15,3 C 11,6 C 13,9 C 13,9 C 2,2 C 64 % 71 % 58 % 1006,8 hPa 0,0 l/m 3,4 km/h (1 Bft) SO 135 0 min 0,7 UV-I 5,1 C 13,9 C 3,7 km/h (1 Bft)
14.10.2012 13:25 11,9 C 15,3 C 11,6 C 13,8 C 13,8 C 1,9 C 65 % 71 % 50 % 1006,4 hPa 0,0 l/m 3,4 km/h (1 Bft) O 90 0 min 0,7 UV-I 5,5 C 13,8 C 2,1 km/h (1 Bft)
14.10.2012 13:30 11,9 C 15,3 C 11,6 C 13,8 C 13,8 C 1,9 C 65 % 71 % 50 % 1006,4 hPa 0,0 l/m 2,6 km/h (1 Bft) NW 315 0 min 0,7 UV-I 5,5 C 13,8 C 3,1 km/h (1 Bft)
14.10.2012 13:35 11,8 C 15,3 C 11,9 C 13,8 C 13,8 C 2,0 C 64 % 71 % 53 % 1006,4 hPa 0,0 l/m 2,6 km/h (1 Bft) S-SO 157 0 min 0,7 UV-I 5,2 C 13,8 C 0,0 km/h (0 Bft)
14.10.2012 13:40 12,0 C 15,3 C 11,9 C 14,3 C 14,3 C 2,3 C 65 % 71 % 61 % 1006,4 hPa 0,0 l/m 2,6 km/h (1 Bft) SW 225 0 min 0,8 UV-I 5,6 C 14,3 C 3,4 km/h (1 Bft)
14.10.2012 13:45 12,1 C 15,3 C 12,0 C 14,6 C 14,6 C 2,5 C 66 % 71 % 66 % 1005,9 hPa 0,0 l/m 1,9 km/h (1 Bft) W 270 0 min 0,9 UV-I 5,9 C 14,6 C 1,9 km/h (1 Bft)
14.10.2012 13:50 12,2 C 15,3 C 12,1 C 15,0 C 15,0 C 2,8 C 65 % 70 % 74 % 1005,9 hPa 0,0 l/m 1,4 km/h (1 Bft) N 360 0 min 0,8 UV-I 5,8 C 15,0 C 0,0 km/h (0 Bft)
14.10.2012 13:55 12,1 C 15,3 C 12,0 C 15,1 C 15,1 C 3,0 C 64 % 69 % 79 % 1005,9 hPa 0,0 l/m 1,6 km/h (1 Bft) W 270 0 min 0,8 UV-I 5,5 C 15,1 C 0,0 km/h (0 Bft)
14.10.2012 14:00 12,3 C 15,3 C 12,2 C 15,7 C 15,7 C 3,4 C 65 % 69 % 89 % 1005,9 hPa 0,0 l/m 1,9 km/h (1 Bft) SW 225 5 min 0,8 UV-I 5,9 C 15,7 C 1,9 km/h (1 Bft)
14.10.2012 14:05 12,3 C 15,4 C 12,4 C 16,6 C 16,6 C 4,3 C 65 % 69 % 100 % 1005,6 hPa 0,0 l/m 1,6 km/h (1 Bft) SW 225 5 min 0,9 UV-I 5,9 C 16,6 C 1,9 km/h (1 Bft)
14.10.2012 14:10 12,5 C 15,4 C 12,5 C 17,0 C 17,0 C 4,5 C 63 % 69 % 100 % 1005,6 hPa 0,0 l/m 3,1 km/h (1 Bft) S 180 5 min 0,9 UV-I 5,7 C 17,0 C 0,0 km/h (0 Bft)
14.10.2012 14:15 12,5 C 15,4 C 12,7 C 17,0 C 17,0 C 4,5 C 63 % 69 % 100 % 1005,6 hPa 0,0 l/m 3,4 km/h (1 Bft) N-NO 22 5 min 0,8 UV-I 5,7 C 17,0 C 1,9 km/h (1 Bft)
14.10.2012 14:20 12,7 C 15,4 C 12,7 C 16,8 C 16,8 C 4,1 C 63 % 69 % 100 % 1005,6 hPa 0,0 l/m 1,9 km/h (1 Bft) SO 135 5 min 0,8 UV-I 5,8 C 16,8 C 3,9 km/h (1 Bft)
14.10.2012 14:25 12,7 C 15,4 C 12,6 C 16,8 C 16,8 C 4,1 C 63 % 68 % 100 % 1005,7 hPa 0,0 l/m 2,1 km/h (1 Bft) NW 315 5 min 0,8 UV-I 5,8 C 16,8 C 3,7 km/h (1 Bft)
14.10.2012 14:30 12,7 C 15,4 C 12,7 C 16,3 C 16,3 C 3,6 C 62 % 69 % 95 % 1005,7 hPa 0,0 l/m 3,4 km/h (1 Bft) W-SW 247 5 min 0,7 UV-I 5,6 C 16,3 C 3,7 km/h (1 Bft)
14.10.2012 14:35 12,7 C 15,4 C 12,5 C 15,7 C 15,7 C 3,0 C 62 % 69 % 79 % 1005,7 hPa 0,0 l/m 3,2 km/h (1 Bft) W-SW 247 0 min 0,7 UV-I 5,6 C 15,7 C 4,0 km/h (1 Bft)
14.10.2012 14:40 12,6 C 15,4 C 12,3 C 15,0 C 15,0 C 2,4 C 62 % 68 % 63 % 1005,7 hPa 0,0 l/m 1,6 km/h (1 Bft) SO 135 0 min 0,6 UV-I 5,5 C 15,0 C 0,0 km/h (0 Bft)
14.10.2012 14:45 12,7 C 15,4 C 12,2 C 14,6 C 14,6 C 1,9 C 62 % 68 % 50 % 1005,7 hPa 0,0 l/m 1,6 km/h (1 Bft) SW 225 0 min 0,6 UV-I 5,6 C 14,6 C 3,7 km/h (1 Bft)
14.10.2012 14:50 12,6 C 15,4 C 12,3 C 14,6 C 14,6 C 2,0 C 62 % 68 % 53 % 1005,7 hPa 0,0 l/m 1,6 km/h (1 Bft) SW 225 0 min 0,5 UV-I 5,5 C 14,6 C 4,2 km/h (1 Bft)
14.10.2012 14:55 12,7 C 15,4 C 12,5 C 15,1 C 15,1 C 2,4 C 62 % 69 % 63 % 1005,7 hPa 0,0 l/m 2,9 km/h (1 Bft) SW 225 0 min 0,5 UV-I 5,6 C 15,1 C 9,2 km/h (2 Bft)
14.10.2012 15:00 12,9 C 15,4 C 12,7 C 15,4 C 15,4 C 2,5 C 61 % 69 % 66 % 1005,7 hPa 0,0 l/m 4,5 km/h (1 Bft) SW 225 0 min 0,5 UV-I 5,6 C 15,4 C 8,7 km/h (2 Bft)
14.10.2012 15:05 12,9 C 15,4 C 12,6 C 15,2 C 15,2 C 2,3 C 61 % 68 % 61 % 1005,3 hPa 0,0 l/m 4,2 km/h (1 Bft) W-NW 292 0 min 0,5 UV-I 5,6 C 15,2 C 1,9 km/h (1 Bft)
14.10.2012 15:10 12,8 C 15,4 C 12,7 C 15,2 C 15,2 C 2,4 C 61 % 69 % 63 % 1005,3 hPa 0,0 l/m 2,9 km/h (1 Bft) O-NO 67 0 min 0,4 UV-I 5,5 C 15,2 C 1,6 km/h (1 Bft)
14.10.2012 15:15 12,9 C 15,5 C 12,7 C 15,4 C 15,4 C 2,5 C 61 % 68 % 66 % 1005,3 hPa 0,0 l/m 1,8 km/h (1 Bft) N-NW 337 0 min 0,4 UV-I 5,6 C 15,4 C 0,0 km/h (0 Bft)
14.10.2012 15:20 12,9 C 15,5 C 12,7 C 15,2 C 15,2 C 2,3 C 61 % 68 % 61 % 1005,3 hPa 0,0 l/m 2,6 km/h (1 Bft) W-SW 247 0 min 0,4 UV-I 5,6 C 15,2 C 3,1 km/h (1 Bft)
14.10.2012 15:25 12,9 C 15,5 C 12,7 C 14,9 C 14,9 C 2,0 C 61 % 68 % 53 % 1004,9 hPa 0,0 l/m 2,3 km/h (1 Bft) S-SO 157 0 min 0,3 UV-I 5,6 C 14,9 C 5,3 km/h (1 Bft)
14.10.2012 15:30 12,9 C 15,5 C 12,4 C 14,5 C 14,5 C 1,6 C 61 % 68 % 42 % 1004,9 hPa 0,0 l/m 1,0 km/h (0 Bft) S-SO 157 0 min 0,3 UV-I 5,6 C 14,5 C 0,0 km/h (0 Bft)
14.10.2012 15:35 12,9 C 15,5 C 12,4 C 14,3 C 14,3 C 1,4 C 61 % 68 % 37 % 1004,9 hPa 0,0 l/m 1,1 km/h (1 Bft) SW 225 0 min 0,2 UV-I 5,6 C 14,3 C 0,0 km/h (0 Bft)
14.10.2012 15:40 13,1 C 15,5 C 12,7 C 14,5 C 14,5 C 1,4 C 62 % 69 % 37 % 1004,9 hPa 0,0 l/m 0,6 km/h (0 Bft) NO 45 0 min 0,2 UV-I 6,0 C 14,5 C 0,0 km/h (0 Bft)
14.10.2012 15:45 13,1 C 15,5 C 12,7 C 14,7 C 14,7 C 1,6 C 62 % 69 % 42 % 1005,2 hPa 0,0 l/m 0,6 km/h (0 Bft) W-SW 247 0 min 0,2 UV-I 6,0 C 14,7 C 2,6 km/h (1 Bft)
14.10.2012 15:50 13,2 C 15,5 C 12,6 C 14,9 C 14,9 C 1,7 C 62 % 69 % 45 % 1005,2 hPa 0,0 l/m 0,6 km/h (0 Bft) SO 135 0 min 0,2 UV-I 6,1 C 14,9 C 0,0 km/h (0 Bft)
14.10.2012 15:55 13,2 C 15,5 C 12,6 C 14,9 C 14,9 C 1,7 C 62 % 69 % 45 % 1005,2 hPa 0,0 l/m 0,3 km/h (0 Bft) SO 135 0 min 0,2 UV-I 6,1 C 14,9 C 0,0 km/h (0 Bft)
14.10.2012 16:00 13,2 C 15,5 C 12,6 C 14,7 C 14,7 C 1,5 C 62 % 69 % 39 % 1005,2 hPa 0,0 l/m 0,2 km/h (0 Bft) NO 45 0 min 0,2 UV-I 6,1 C 14,7 C 0,0 km/h (0 Bft)
14.10.2012 16:05 13,2 C 15,5 C 12,5 C 14,5 C 14,5 C 1,3 C 62 % 69 % 34 % 1005,1 hPa 0,0 l/m 0,0 km/h (0 Bft) O 90 0 min 0,1 UV-I 6,1 C 14,5 C 0,0 km/h (0 Bft)
14.10.2012 16:10 13,0 C 15,5 C 12,5 C 14,3 C 14,3 C 1,3 C 62 % 70 % 34 % 1005,1 hPa 0,0 l/m 0,5 km/h (0 Bft) W 270 0 min 0,1 UV-I 5,9 C 14,3 C 0,0 km/h (0 Bft)
14.10.2012 16:15 13,1 C 15,5 C 12,4 C 14,3 C 14,3 C 1,2 C 62 % 70 % 32 % 1005,1 hPa 0,0 l/m 0,5 km/h (0 Bft) O-NO 67 0 min 0,1 UV-I 6,0 C 14,3 C 0,0 km/h (0 Bft)
14.10.2012 16:20 13,1 C 15,5 C 12,5 C 14,0 C 14,0 C 0,9 C 62 % 70 % 24 % 1005,1 hPa 0,0 l/m 0,3 km/h (0 Bft) S 180 0 min 0,0 UV-I 6,0 C 14,0 C 0,0 km/h (0 Bft)
14.10.2012 16:25 13,1 C 15,6 C 12,4 C 13,9 C 13,9 C 0,8 C 62 % 70 % 21 % 1004,9 hPa 0,0 l/m 0,3 km/h (0 Bft) SW 225 0 min 0,0 UV-I 6,0 C 13,9 C 1,9 km/h (1 Bft)
14.10.2012 16:30 12,9 C 15,6 C 12,3 C 13,6 C 13,6 C 0,7 C 62 % 71 % 18 % 1004,9 hPa 0,0 l/m 0,2 km/h (0 Bft) NO 45 0 min 0,0 UV-I 5,8 C 13,6 C 0,0 km/h (0 Bft)
14.10.2012 16:35 12,9 C 15,6 C 12,1 C 13,4 C 13,4 C 0,5 C 62 % 71 % 13 % 1004,9 hPa 0,0 l/m 0,2 km/h (0 Bft) O-NO 67 0 min 0,0 UV-I 5,8 C 13,4 C 0,0 km/h (0 Bft)
14.10.2012 16:40 12,8 C 15,6 C 12,1 C 13,1 C 13,1 C 0,3 C 64 % 71 % 8 % 1004,9 hPa 0,0 l/m 0,0 km/h (0 Bft) W 270 0 min 0,0 UV-I 6,2 C 13,1 C 0,0 km/h (0 Bft)
14.10.2012 16:45 12,9 C 15,6 C 11,9 C 12,9 C 12,9 C 0,0 C 64 % 71 % 0 % 1004,2 hPa 0,0 l/m 0,0 km/h (0 Bft) SO 135 0 min 0,0 UV-I 6,3 C 12,9 C 0,0 km/h (0 Bft)
14.10.2012 16:50 12,7 C 15,6 C 11,9 C 12,7 C 12,7 C 0,0 C 64 % 71 % 0 % 1004,2 hPa 0,0 l/m 0,0 km/h (0 Bft) O 90 0 min 0,0 UV-I 6,1 C 12,7 C 0,0 km/h (0 Bft)
14.10.2012 16:55 12,7 C 15,6 C 11,9 C 12,7 C 12,6 C 0,0 C 65 % 73 % 0 % 1004,2 hPa 0,0 l/m 0,0 km/h (0 Bft) S-SO 157 0 min 0,0 UV-I 6,3 C 12,6 C 0,0 km/h (0 Bft)
14.10.2012 17:00 12,4 C 15,7 C 11,7 C 12,4 C 12,4 C 0,0 C 65 % 74 % 0 % 1004,2 hPa 0,0 l/m 0,0 km/h (0 Bft) O 90 0 min 0,0 UV-I 6,0 C 12,4 C 0,0 km/h (0 Bft)
14.10.2012 17:05 12,3 C 15,7 C 11,7 C 12,3 C 12,3 C 0,0 C 65 % 74 % 0 % 1004,7 hPa 0,0 l/m 0,0 km/h (0 Bft) O-NO 67 0 min 0,0 UV-I 5,9 C 12,3 C 0,0 km/h (0 Bft)
14.10.2012 17:10 12,2 C 15,7 C 11,6 C 12,1 C 12,0 C 0,0 C 66 % 75 % 0 % 1004,7 hPa 0,0 l/m 0,2 km/h (0 Bft) O 90 0 min 0,0 UV-I 6,0 C 12,0 C 0,0 km/h (0 Bft)
14.10.2012 17:15 12,1 C 15,7 C 11,5 C 12,0 C 11,9 C 0,0 C 66 % 75 % 0 % 1004,7 hPa 0,0 l/m 0,3 km/h (0 Bft) NO 45 0 min 0,0 UV-I 5,9 C 11,9 C 2,1 km/h (1 Bft)
14.10.2012 17:20 11,9 C 15,7 C 11,5 C 11,9 C 11,8 C 0,0 C 67 % 76 % 0 % 1004,7 hPa 0,0 l/m 1,3 km/h (1 Bft) O-NO 67 0 min 0,0 UV-I 6,0 C 11,8 C 1,6 km/h (1 Bft)
14.10.2012 17:25 11,9 C 15,7 C 11,5 C 11,9 C 11,8 C 0,0 C 68 % 76 % 0 % 1004,7 hPa 0,0 l/m 1,3 km/h (1 Bft) O-NO 67 0 min 0,0 UV-I 6,2 C 11,8 C 0,0 km/h (0 Bft)
14.10.2012 17:30 11,8 C 15,7 C 11,3 C 11,8 C 11,8 C 0,0 C 68 % 76 % 0 % 1004,7 hPa 0,0 l/m 0,2 km/h (0 Bft) O-NO 67 0 min 0,0 UV-I 6,1 C 11,8 C 0,0 km/h (0 Bft)
14.10.2012 17:35 11,9 C 15,7 C 11,3 C 11,9 C 11,8 C 0,0 C 68 % 76 % 0 % 1004,7 hPa 0,0 l/m 0,0 km/h (0 Bft) O-NO 67 0 min 0,0 UV-I 6,2 C 11,8 C 0,0 km/h (0 Bft)
14.10.2012 17:40 11,7 C 15,7 C 11,2 C 11,6 C 11,5 C 0,0 C 70 % 77 % 0 % 1004,7 hPa 0,0 l/m 0,0 km/h (0 Bft) O-NO 67 0 min 0,0 UV-I 6,4 C 11,5 C 0,0 km/h (0 Bft)
14.10.2012 17:45 11,6 C 15,8 C 11,1 C 11,5 C 11,3 C 0,0 C 71 % 78 % 0 % 1004,4 hPa 0,0 l/m 0,2 km/h (0 Bft) O-NO 67 0 min 0,0 UV-I 6,5 C 11,3 C 2,3 km/h (1 Bft)
14.10.2012 17:50 11,5 C 15,8 C 10,9 C 11,4 C 11,1 C 0,0 C 71 % 78 % 0 % 1004,4 hPa 0,0 l/m 1,6 km/h (1 Bft) O-NO 67 0 min 0,0 UV-I 6,4 C 11,1 C 2,9 km/h (1 Bft)
14.10.2012 17:55 11,3 C 15,8 C 10,8 C 11,2 C 11,1 C 0,0 C 71 % 78 % 0 % 1004,4 hPa 0,0 l/m 2,4 km/h (1 Bft) O-NO 67 0 min 0,0 UV-I 6,2 C 11,1 C 1,9 km/h (1 Bft)
14.10.2012 18:00 11,3 C 15,8 C 10,9 C 11,2 C 11,1 C 0,0 C 72 % 78 % 0 % 1004,4 hPa 0,0 l/m 1,3 km/h (1 Bft) N-NO 22 0 min 0,0 UV-I 6,4 C 11,1 C 0,0 km/h (0 Bft)
14.10.2012 18:05 11,2 C 15,8 C 10,8 C 11,1 C 10,9 C 0,0 C 72 % 78 % 0 % 1003,9 hPa 0,0 l/m 0,3 km/h (0 Bft) N-NO 22 0 min 0,0 UV-I 6,3 C 10,9 C 0,0 km/h (0 Bft)
14.10.2012 18:10 11,1 C 15,8 C 10,6 C 10,9 C 10,6 C 0,0 C 73 % 79 % 0 % 1003,9 hPa 0,0 l/m 0,0 km/h (0 Bft) N-NO 22 0 min 0,0 UV-I 6,4 C 10,6 C 0,0 km/h (0 Bft)
14.10.2012 18:15 11,1 C 15,8 C 10,7 C 10,9 C 10,4 C 0,0 C 73 % 79 % 0 % 1003,9 hPa 0,0 l/m 0,0 km/h (0 Bft) N-NO 22 0 min 0,0 UV-I 6,4 C 10,4 C 0,0 km/h (0 Bft)
14.10.2012 18:20 10,8 C 15,8 C 10,4 C 10,6 C 10,1 C 0,0 C 73 % 79 % 0 % 1003,9 hPa 0,0 l/m 0,0 km/h (0 Bft) NO 45 0 min 0,0 UV-I 6,2 C 10,1 C 0,0 km/h (0 Bft)
14.10.2012 18:25 10,7 C 15,8 C 10,3 C 10,5 C 10,0 C 0,0 C 74 % 80 % 0 % 1003,9 hPa 0,0 l/m 0,0 km/h (0 Bft) NO 45 0 min 0,0 UV-I 6,3 C 10,0 C 0,0 km/h (0 Bft)
14.10.2012 18:30 10,5 C 15,8 C 10,2 C 10,3 C 9,9 C 0,0 C 74 % 80 % 0 % 1003,9 hPa 0,0 l/m 0,0 km/h (0 Bft) NO 45 0 min 0,0 UV-I 6,1 C 9,9 C 0,0 km/h (0 Bft)
14.10.2012 18:35 10,4 C 15,9 C 10,1 C 10,2 C 9,7 C 0,0 C 75 % 80 % 0 % 1003,9 hPa 0,0 l/m 0,0 km/h (0 Bft) N-NO 22 0 min 0,0 UV-I 6,2 C 9,7 C 0,0 km/h (0 Bft)
14.10.2012 18:46 10,1 C 15,9 C 9,8 C 9,8 C 9,3 C 0,0 C 76 % 81 % 0 % 1003,7 hPa 0,0 l/m 0,0 km/h (0 Bft) N 0 0 min 0,0 UV-I 6,1 C 9,3 C 0,0 km/h (0 Bft)
14.10.2012 18:55 10,0 C 15,9 C 9,9 C 9,7 C 9,1 C 0,0 C 76 % 81 % 0 % 1003,7 hPa 0,0 l/m 0,0 km/h (0 Bft) W-NW 292 0 min 0,0 UV-I 6,0 C 9,1 C 0,0 km/h (0 Bft)
14.10.2012 19:00 9,9 C 15,9 C 9,6 C 9,6 C 9,0 C 0,0 C 76 % 82 % 0 % 1003,7 hPa 0,0 l/m 0,0 km/h (0 Bft) N-NO 22 0 min 0,0 UV-I 5,9 C 9,0 C 0,0 km/h (0 Bft)
14.10.2012 19:05 9,9 C 15,9 C 9,7 C 9,6 C 8,9 C 0,0 C 77 % 82 % 0 % 1003,9 hPa 0,0 l/m 0,0 km/h (0 Bft) O-NO 67 0 min 0,0 UV-I 6,1 C 8,9 C 0,0 km/h (0 Bft)
14.10.2012 19:10 9,6 C 15,9 C 9,5 C 9,4 C 8,9 C 0,0 C 78 % 82 % 0 % 1003,9 hPa 0,0 l/m 0,2 km/h (0 Bft) O-NO 67 0 min 0,0 UV-I 6,0 C 8,9 C 0,0 km/h (0 Bft)
14.10.2012 19:15 9,6 C 15,9 C 9,5 C 9,4 C 8,9 C 0,0 C 78 % 82 % 0 % 1003,9 hPa 0,0 l/m 0,6 km/h (0 Bft) O-NO 67 0 min 0,0 UV-I 6,0 C 8,9 C 1,6 km/h (1 Bft)
14.10.2012 19:20 9,4 C 15,9 C 9,4 C 9,3 C 9,0 C 0,0 C 78 % 83 % 0 % 1003,9 hPa 0,0 l/m 0,6 km/h (0 Bft) O 90 0 min 0,0 UV-I 5,8 C 9,0 C 0,0 km/h (0 Bft)
14.10.2012 19:25 9,5 C 15,9 C 9,5 C 9,3 C 8,9 C 0,0 C 79 % 83 % 0 % 1003,0 hPa 0,0 l/m 0,2 km/h (0 Bft) N-NO 22 0 min 0,0 UV-I 6,0 C 8,9 C 0,0 km/h (0 Bft)
14.10.2012 19:30 9,3 C 15,9 C 9,3 C 9,2 C 9,0 C 0,0 C 79 % 83 % 0 % 1003,0 hPa 0,0 l/m 0,0 km/h (0 Bft) N-NO 22 0 min 0,0 UV-I 5,8 C 9,0 C 0,0 km/h (0 Bft)
14.10.2012 19:35 9,3 C 15,9 C 9,3 C 9,2 C 9,0 C 0,0 C 79 % 83 % 0 % 1003,0 hPa 0,0 l/m 0,0 km/h (0 Bft) N-NO 22 0 min 0,0 UV-I 5,8 C 9,0 C 0,0 km/h (0 Bft)
14.10.2012 19:40 9,3 C 15,9 C 9,3 C 9,2 C 9,1 C 0,0 C 79 % 83 % 0 % 1003,0 hPa 0,0 l/m 0,0 km/h (0 Bft) N-NO 22 0 min 0,0 UV-I 5,8 C 9,1 C 0,0 km/h (0 Bft)
14.10.2012 19:45 9,3 C 15,9 C 9,3 C 9,2 C 9,1 C 0,0 C 79 % 84 % 0 % 1003,7 hPa 0,0 l/m 0,2 km/h (0 Bft) N-NW 337 0 min 0,0 UV-I 5,8 C 9,1 C 0,0 km/h (0 Bft)
14.10.2012 19:50 9,2 C 15,9 C 9,3 C 9,2 C 9,2 C 0,0 C 79 % 84 % 0 % 1003,7 hPa 0,0 l/m 0,3 km/h (0 Bft) O-NO 67 0 min 0,0 UV-I 5,8 C 9,2 C 2,6 km/h (1 Bft)
14.10.2012 19:55 9,3 C 15,9 C 9,3 C 9,3 C 9,3 C 0,0 C 80 % 84 % 0 % 1003,7 hPa 0,0 l/m 0,8 km/h (0 Bft) O-NO 67 0 min 0,0 UV-I 6,0 C 9,3 C 3,1 km/h (1 Bft)
14.10.2012 20:00 9,5 C 15,9 C 9,5 C 9,6 C 9,6 C 0,1 C 80 % 84 % 0 % 1003,7 hPa 0,0 l/m 2,1 km/h (1 Bft) O-NO 67 0 min 0,0 UV-I 6,2 C 9,6 C 2,3 km/h (1 Bft)
14.10.2012 20:05 9,5 C 15,9 C 9,4 C 9,7 C 9,7 C 0,2 C 80 % 84 % 0 % 1003,1 hPa 0,0 l/m 1,6 km/h (1 Bft) O-NO 67 0 min 0,0 UV-I 6,2 C 9,7 C 2,4 km/h (1 Bft)
14.10.2012 20:10 9,6 C 15,9 C 9,6 C 9,9 C 9,9 C 0,3 C 79 % 84 % 0 % 1003,1 hPa 0,0 l/m 2,1 km/h (1 Bft) O-NO 67 0 min 0,0 UV-I 6,1 C 9,9 C 4,0 km/h (1 Bft)
14.10.2012 20:15 9,9 C 15,9 C 9,6 C 9,9 C 9,9 C 0,0 C 79 % 84 % 0 % 1003,1 hPa 0,0 l/m 2,7 km/h (1 Bft) O 90 0 min 0,0 UV-I 6,4 C 9,9 C 2,7 km/h (1 Bft)
14.10.2012 20:20 9,9 C 15,9 C 9,6 C 9,9 C 9,9 C 0,0 C 79 % 84 % 0 % 1003,1 hPa 0,0 l/m 2,9 km/h (1 Bft) NO 45 0 min 0,0 UV-I 6,4 C 9,9 C 2,7 km/h (1 Bft)
14.10.2012 20:25 9,8 C 15,9 C 9,6 C 9,9 C 9,9 C 0,1 C 79 % 84 % 0 % 1003,2 hPa 0,0 l/m 2,3 km/h (1 Bft) O-NO 67 0 min 0,0 UV-I 6,3 C 9,9 C 1,8 km/h (1 Bft)
14.10.2012 20:30 9,9 C 15,9 C 9,7 C 9,9 C 9,9 C 0,0 C 79 % 84 % 0 % 1003,2 hPa 0,0 l/m 2,4 km/h (1 Bft) O-NO 67 0 min 0,0 UV-I 6,4 C 9,9 C 3,9 km/h (1 Bft)
14.10.2012 20:35 10,0 C 15,9 C 9,6 C 10,0 C 10,0 C 0,0 C 79 % 84 % 0 % 1003,2 hPa 0,0 l/m 2,1 km/h (1 Bft) NO 45 0 min 0,0 UV-I 6,5 C 10,0 C 0,0 km/h (0 Bft)
14.10.2012 20:40 10,0 C 15,9 C 9,7 C 10,2 C 10,2 C 0,2 C 79 % 84 % 0 % 1003,2 hPa 0,0 l/m 2,3 km/h (1 Bft) O-NO 67 0 min 0,0 UV-I 6,5 C 10,2 C 4,5 km/h (1 Bft)
14.10.2012 20:45 10,2 C 15,9 C 9,8 C 10,2 C 10,2 C 0,0 C 79 % 84 % 0 % 1002,8 hPa 0,0 l/m 3,1 km/h (1 Bft) O-NO 67 0 min 0,0 UV-I 6,7 C 10,2 C 4,0 km/h (1 Bft)
14.10.2012 20:50 10,4 C 15,9 C 9,8 C 10,4 C 10,3 C 0,0 C 78 % 84 % 0 % 1002,8 hPa 0,0 l/m 2,7 km/h (1 Bft) O-NO 67 0 min 0,0 UV-I 6,7 C 10,3 C 4,0 km/h (1 Bft)
14.10.2012 20:55 10,3 C 15,9 C 9,9 C 10,3 C 10,2 C 0,0 C 78 % 84 % 0 % 1002,8 hPa 0,0 l/m 2,3 km/h (1 Bft) O 90 0 min 0,0 UV-I 6,6 C 10,2 C 3,5 km/h (1 Bft)
14.10.2012 21:00 10,3 C 15,9 C 9,7 C 10,3 C 10,2 C 0,0 C 78 % 84 % 0 % 1002,8 hPa 0,0 l/m 1,9 km/h (1 Bft) O-NO 67 0 min 0,0 UV-I 6,6 C 10,2 C 1,9 km/h (1 Bft)
14.10.2012 21:05 10,3 C 15,9 C 9,7 C 10,2 C 10,1 C 0,0 C 78 % 84 % 0 % 1002,8 hPa 0,0 l/m 1,8 km/h (1 Bft) O-NO 67 0 min 0,0 UV-I 6,6 C 10,1 C 3,4 km/h (1 Bft)
14.10.2012 21:10 10,2 C 15,9 C 9,7 C 10,1 C 10,0 C 0,0 C 79 % 84 % 0 % 1002,8 hPa 0,0 l/m 1,4 km/h (1 Bft) NW 315 0 min 0,0 UV-I 6,7 C 10,0 C 0,0 km/h (0 Bft)
14.10.2012 21:15 10,1 C 15,9 C 9,6 C 10,0 C 9,7 C 0,0 C 79 % 84 % 0 % 1002,8 hPa 0,0 l/m 0,8 km/h (0 Bft) NW 315 0 min 0,0 UV-I 6,6 C 9,7 C 0,0 km/h (0 Bft)
14.10.2012 21:20 9,9 C 16,0 C 9,5 C 9,7 C 9,4 C 0,0 C 79 % 84 % 0 % 1002,8 hPa 0,0 l/m 0,2 km/h (0 Bft) O-NO 67 0 min 0,0 UV-I 6,4 C 9,4 C 2,4 km/h (1 Bft)
14.10.2012 21:25 9,8 C 16,0 C 9,3 C 9,6 C 9,3 C 0,0 C 79 % 84 % 0 % 1002,4 hPa 0,0 l/m 1,1 km/h (1 Bft) O-NO 67 0 min 0,0 UV-I 6,3 C 9,3 C 2,3 km/h (1 Bft)
14.10.2012 21:30 9,6 C 16,0 C 9,2 C 9,5 C 9,3 C 0,0 C 80 % 85 % 0 % 1002,4 hPa 0,0 l/m 1,1 km/h (1 Bft) NO 45 0 min 0,0 UV-I 6,3 C 9,3 C 0,0 km/h (0 Bft)
14.10.2012 21:35 9,5 C 16,0 C 9,2 C 9,4 C 9,2 C 0,0 C 80 % 85 % 0 % 1002,4 hPa 0,0 l/m 0,3 km/h (0 Bft) O-NO 67 0 min 0,0 UV-I 6,2 C 9,2 C 0,0 km/h (0 Bft)
14.10.2012 21:40 9,3 C 16,0 C 9,2 C 9,2 C 9,0 C 0,0 C 80 % 85 % 0 % 1002,4 hPa 0,0 l/m 0,5 km/h (0 Bft) O 90 0 min 0,0 UV-I 6,0 C 9,0 C 1,9 km/h (1 Bft)
14.10.2012 21:45 9,2 C 16,0 C 9,1 C 9,1 C 9,0 C 0,0 C 80 % 85 % 0 % 1001,9 hPa 0,0 l/m 1,4 km/h (1 Bft) O-NO 67 0 min 0,0 UV-I 5,9 C 9,0 C 4,0 km/h (1 Bft)
14.10.2012 21:50 9,1 C 16,1 C 9,1 C 9,1 C 9,1 C 0,0 C 81 % 85 % 0 % 1001,9 hPa 0,0 l/m 2,7 km/h (1 Bft) O 90 0 min 0,0 UV-I 6,0 C 9,1 C 3,4 km/h (1 Bft)
14.10.2012 21:55 9,1 C 16,1 C 9,1 C 9,1 C 9,1 C 0,0 C 81 % 85 % 0 % 1001,9 hPa 0,0 l/m 2,7 km/h (1 Bft) O-NO 67 0 min 0,0 UV-I 6,0 C 9,1 C 0,0 km/h (0 Bft)
14.10.2012 22:00 9,1 C 16,1 C 9,0 C 9,1 C 9,0 C 0,0 C 81 % 85 % 0 % 1001,9 hPa 0,0 l/m 1,4 km/h (1 Bft) N-NO 22 0 min 0,0 UV-I 6,0 C 9,0 C 0,0 km/h (0 Bft)
14.10.2012 22:05 9,0 C 16,1 C 9,1 C 9,0 C 8,9 C 0,0 C 81 % 85 % 0 % 1002,0 hPa 0,0 l/m 0,5 km/h (0 Bft) N-NO 22 0 min 0,0 UV-I 5,9 C 8,9 C 0,0 km/h (0 Bft)
14.10.2012 22:10 8,8 C 16,1 C 8,9 C 8,8 C 8,7 C 0,0 C 81 % 86 % 0 % 1002,0 hPa 0,0 l/m 0,0 km/h (0 Bft) O-NO 67 0 min 0,0 UV-I 5,7 C 8,7 C 0,0 km/h (0 Bft)
14.10.2012 22:15 8,8 C 16,1 C 8,8 C 8,7 C 8,6 C 0,0 C 81 % 85 % 0 % 1002,0 hPa 0,0 l/m 0,0 km/h (0 Bft) O-NO 67 0 min 0,0 UV-I 5,7 C 8,6 C 0,0 km/h (0 Bft)
14.10.2012 22:20 8,7 C 16,1 C 8,6 C 8,6 C 8,5 C 0,0 C 81 % 85 % 0 % 1002,0 hPa 0,0 l/m 0,5 km/h (0 Bft) O-NO 67 0 min 0,0 UV-I 5,6 C 8,5 C 2,6 km/h (1 Bft)
14.10.2012 22:25 8,5 C 16,1 C 8,5 C 8,5 C 8,4 C 0,0 C 81 % 85 % 0 % 1001,9 hPa 0,0 l/m 0,6 km/h (0 Bft) O-NO 67 0 min 0,0 UV-I 5,4 C 8,4 C 0,0 km/h (0 Bft)
14.10.2012 22:30 8,4 C 16,1 C 8,4 C 8,3 C 8,2 C 0,0 C 82 % 86 % 0 % 1001,9 hPa 0,0 l/m 0,6 km/h (0 Bft) O-NO 67 0 min 0,0 UV-I 5,5 C 8,2 C 1,8 km/h (1 Bft)
14.10.2012 22:35 8,3 C 16,1 C 8,5 C 8,3 C 8,2 C 0,0 C 82 % 86 % 0 % 1001,9 hPa 0,0 l/m 0,5 km/h (0 Bft) O-NO 67 0 min 0,0 UV-I 5,4 C 8,2 C 0,0 km/h (0 Bft)
14.10.2012 22:40 8,1 C 16,1 C 8,4 C 8,1 C 8,1 C 0,0 C 82 % 86 % 0 % 1001,9 hPa 0,0 l/m 0,3 km/h (0 Bft) NW 315 0 min 0,0 UV-I 5,2 C 8,1 C 0,0 km/h (0 Bft)
14.10.2012 22:45 8,1 C 16,1 C 8,3 C 8,0 C 7,8 C 0,0 C 82 % 86 % 0 % 1002,0 hPa 0,0 l/m 0,0 km/h (0 Bft) N-NO 22 0 min 0,0 UV-I 5,2 C 7,8 C 0,0 km/h (0 Bft)
14.10.2012 22:50 7,8 C 16,2 C 8,1 C 7,7 C 7,6 C 0,0 C 82 % 86 % 0 % 1002,0 hPa 0,0 l/m 0,3 km/h (0 Bft) O-NO 67 0 min 0,0 UV-I 4,9 C 7,6 C 2,9 km/h (1 Bft)
14.10.2012 22:55 7,6 C 16,2 C 8,0 C 7,7 C 7,7 C 0,1 C 83 % 86 % 0 % 1002,0 hPa 0,0 l/m 1,4 km/h (1 Bft) O-NO 67 0 min 0,0 UV-I 4,9 C 7,7 C 2,9 km/h (1 Bft)
14.10.2012 23:00 7,6 C 16,2 C 8,1 C 8,0 C 8,0 C 0,4 C 83 % 87 % 0 % 1002,0 hPa 0,0 l/m 2,7 km/h (1 Bft) O-NO 67 0 min 0,0 UV-I 4,9 C 8,0 C 2,9 km/h (1 Bft)
14.10.2012 23:05 7,8 C 16,1 C 8,3 C 8,3 C 8,3 C 0,5 C 83 % 87 % 0 % 1001,9 hPa 0,0 l/m 2,9 km/h (1 Bft) O-NO 67 0 min 0,0 UV-I 5,1 C 8,3 C 2,7 km/h (1 Bft)
14.10.2012 23:10 7,9 C 16,1 C 8,3 C 8,3 C 8,3 C 0,4 C 83 % 87 % 0 % 1001,9 hPa 0,0 l/m 1,4 km/h (1 Bft) W-SW 247 0 min 0,0 UV-I 5,2 C 8,3 C 0,0 km/h (0 Bft)
14.10.2012 23:15 7,9 C 16,1 C 8,1 C 8,0 C 8,0 C 0,1 C 83 % 87 % 0 % 1001,9 hPa 0,0 l/m 0,3 km/h (0 Bft) N 360 0 min 0,0 UV-I 5,2 C 8,0 C 0,0 km/h (0 Bft)
14.10.2012 23:20 7,7 C 16,1 C 8,0 C 8,0 C 8,0 C 0,3 C 83 % 87 % 0 % 1001,9 hPa 0,0 l/m 0,0 km/h (0 Bft) O-NO 67 0 min 0,0 UV-I 5,0 C 8,0 C 0,0 km/h (0 Bft)
14.10.2012 23:25 7,6 C 16,2 C 8,0 C 8,2 C 8,2 C 0,6 C 83 % 87 % 0 % 1001,3 hPa 0,0 l/m 0,0 km/h (0 Bft) O 90 0 min 0,0 UV-I 4,9 C 8,2 C 0,0 km/h (0 Bft)
14.10.2012 23:30 7,7 C 16,1 C 8,1 C 8,3 C 8,3 C 0,6 C 83 % 88 % 0 % 1001,3 hPa 0,0 l/m 0,0 km/h (0 Bft) SW 225 0 min 0,0 UV-I 5,0 C 8,3 C 0,0 km/h (0 Bft)
14.10.2012 23:35 7,5 C 16,1 C 8,0 C 8,0 C 8,0 C 0,5 C 83 % 87 % 0 % 1001,3 hPa 0,0 l/m 0,0 km/h (0 Bft) N-NW 337 0 min 0,0 UV-I 4,8 C 8,0 C 0,0 km/h (0 Bft)
14.10.2012 23:40 7,5 C 16,2 C 7,9 C 7,7 C 7,7 C 0,2 C 83 % 87 % 0 % 1001,3 hPa 0,0 l/m 0,0 km/h (0 Bft) S 180 0 min 0,0 UV-I 4,8 C 7,7 C 0,0 km/h (0 Bft)
14.10.2012 23:45 7,3 C 16,2 C 7,8 C 7,5 C 7,5 C 0,2 C 83 % 87 % 0 % 1001,5 hPa 0,0 l/m 0,0 km/h (0 Bft) O 90 0 min 0,0 UV-I 4,6 C 7,5 C 0,0 km/h (0 Bft)
14.10.2012 23:50 7,2 C 16,2 C 7,7 C 7,5 C 7,5 C 0,3 C 84 % 88 % 0 % 1001,5 hPa 0,0 l/m 0,6 km/h (0 Bft) O-NO 67 0 min 0,0 UV-I 4,7 C 7,5 C 1,9 km/h (1 Bft)
14.10.2012 23:55 7,1 C 16,2 C 7,9 C 7,6 C 7,6 C 0,5 C 84 % 88 % 0 % 1001,5 hPa 0,0 l/m 0,8 km/h (0 Bft) O-NO 67 0 min 0,0 UV-I 4,6 C 7,6 C 0,0 km/h (0 Bft)
_ Min-Zeit 01:45 04:35 01:10 00:00 00:00 05:05 15:00 14:25 00:00 23:25 - 00:00 - - - 00:00 01:45 00:00 00:00
Minimum _ 3,6 C 15,2 C 5,2 C 4,1 C 4,1 C 0,0 C 61 % 68 % 0 % 1001,3 hPa - 0,0 km/h (0 Bft) - - - 0,0 UV-I 2,0 C 4,1 C 0,0 km/h (0 Bft)
_ Max-Zeit 15:50 00:05 14:15 12:35 12:35 12:35 03:25 02:50 12:25 00:00 00:00 11:30 - - 12:46 12:46 20:50 12:35 11:45
Maximum _ 13,2 C 16,2 C 12,7 C 18,0 C 18,0 C 6,3 C 92 % 92 % 100 % 1009,1 hPa 0,0 l/m 7,4 km/h
S (2 Bft)
- - 11 min 1,0 UV-I 6,7 C 18,0 C 19,2 km/h
W-SW (3 Bft)
Durchschnitt _ 9,1 C 15,6 C 9,3 C 9,9 C 9,8 C 0,8 C 76 % 81 % 15 % 1005,9 hPa #0,0 l/m 1,4 km/h (1 Bft) O-NO - #1:25 h 0,5 UV-I 5,0 C 9,8 C 2,2 km/h (1 Bft)
2012 www.wetterstation-wechselburg.de